sensor_id;sensor_type;location;lat;lon;timestamp;P1;durP1;ratioP1;P2;durP2;ratioP2
6979;SDS011;3530;52.832;10.680;2023-10-31T00:00:43;2.83;;;2.60;;
6979;SDS011;3530;52.832;10.680;2023-10-31T00:03:29;5.28;;;3.97;;
6979;SDS011;3530;52.832;10.680;2023-10-31T00:06:14;5.60;;;4.43;;
6979;SDS011;3530;52.832;10.680;2023-10-31T00:09:00;3.67;;;3.33;;
6979;SDS011;3530;52.832;10.680;2023-10-31T00:11:45;3.58;;;2.92;;
6979;SDS011;3530;52.832;10.680;2023-10-31T00:14:31;3.42;;;3.20;;
6979;SDS011;3530;52.832;10.680;2023-10-31T00:17:17;3.88;;;2.97;;
6979;SDS011;3530;52.832;10.680;2023-10-31T00:20:02;5.50;;;3.95;;
6979;SDS011;3530;52.832;10.680;2023-10-31T00:22:48;4.10;;;2.72;;
6979;SDS011;3530;52.832;10.680;2023-10-31T00:25:34;4.30;;;3.78;;
6979;SDS011;3530;52.832;10.680;2023-10-31T00:28:20;5.85;;;2.95;;
6979;SDS011;3530;52.832;10.680;2023-10-31T00:31:05;6.93;;;4.22;;
6979;SDS011;3530;52.832;10.680;2023-10-31T00:33:56;5.60;;;3.35;;
6979;SDS011;3530;52.832;10.680;2023-10-31T00:36:42;4.32;;;3.67;;
6979;SDS011;3530;52.832;10.680;2023-10-31T00:39:28;3.97;;;3.47;;
6979;SDS011;3530;52.832;10.680;2023-10-31T00:42:14;5.22;;;3.10;;
6979;SDS011;3530;52.832;10.680;2023-10-31T00:45:00;5.95;;;2.97;;
6979;SDS011;3530;52.832;10.680;2023-10-31T00:47:45;6.28;;;3.72;;
6979;SDS011;3530;52.832;10.680;2023-10-31T00:50:31;4.15;;;3.67;;
6979;SDS011;3530;52.832;10.680;2023-10-31T00:53:17;5.45;;;3.22;;
6979;SDS011;3530;52.832;10.680;2023-10-31T00:56:02;3.35;;;3.15;;
6979;SDS011;3530;52.832;10.680;2023-10-31T00:58:48;7.65;;;4.00;;
6979;SDS011;3530;52.832;10.680;2023-10-31T01:01:34;3.80;;;3.58;;
6979;SDS011;3530;52.832;10.680;2023-10-31T01:04:19;4.55;;;3.95;;
6979;SDS011;3530;52.832;10.680;2023-10-31T01:07:06;7.28;;;4.00;;
6979;SDS011;3530;52.832;10.680;2023-10-31T01:09:52;7.35;;;4.35;;
6979;SDS011;3530;52.832;10.680;2023-10-31T01:12:37;4.55;;;3.15;;
6979;SDS011;3530;52.832;10.680;2023-10-31T01:15:23;5.82;;;3.30;;
6979;SDS011;3530;52.832;10.680;2023-10-31T01:18:08;7.97;;;4.50;;
6979;SDS011;3530;52.832;10.680;2023-10-31T01:20:54;5.07;;;4.57;;
6979;SDS011;3530;52.832;10.680;2023-10-31T01:23:40;7.25;;;4.88;;
6979;SDS011;3530;52.832;10.680;2023-10-31T01:26:25;7.03;;;4.30;;
6979;SDS011;3530;52.832;10.680;2023-10-31T01:29:11;6.38;;;4.53;;
6979;SDS011;3530;52.832;10.680;2023-10-31T01:31:57;5.72;;;4.45;;
6979;SDS011;3530;52.832;10.680;2023-10-31T01:34:42;7.05;;;4.30;;
6979;SDS011;3530;52.832;10.680;2023-10-31T01:37:28;7.28;;;4.40;;
6979;SDS011;3530;52.832;10.680;2023-10-31T01:40:13;4.03;;;3.63;;
6979;SDS011;3530;52.832;10.680;2023-10-31T01:42:59;5.28;;;4.50;;
6979;SDS011;3530;52.832;10.680;2023-10-31T01:45:45;4.93;;;3.85;;
6979;SDS011;3530;52.832;10.680;2023-10-31T01:48:31;7.68;;;4.20;;
6979;SDS011;3530;52.832;10.680;2023-10-31T01:51:18;3.80;;;3.50;;
6979;SDS011;3530;52.832;10.680;2023-10-31T01:54:03;8.90;;;4.10;;
6979;SDS011;3530;52.832;10.680;2023-10-31T01:56:49;5.22;;;4.25;;
6979;SDS011;3530;52.832;10.680;2023-10-31T01:59:39;5.13;;;4.63;;
6979;SDS011;3530;52.832;10.680;2023-10-31T02:02:25;4.38;;;3.97;;
6979;SDS011;3530;52.832;10.680;2023-10-31T02:05:10;7.55;;;4.20;;
6979;SDS011;3530;52.832;10.680;2023-10-31T02:07:56;6.15;;;4.13;;
6979;SDS011;3530;52.832;10.680;2023-10-31T02:10:42;6.00;;;4.60;;
6979;SDS011;3530;52.832;10.680;2023-10-31T02:13:27;3.30;;;3.05;;
6979;SDS011;3530;52.832;10.680;2023-10-31T02:16:13;5.25;;;3.95;;
6979;SDS011;3530;52.832;10.680;2023-10-31T02:18:59;3.95;;;3.60;;
6979;SDS011;3530;52.832;10.680;2023-10-31T02:21:44;4.63;;;3.60;;
6979;SDS011;3530;52.832;10.680;2023-10-31T02:24:30;4.75;;;3.83;;
6979;SDS011;3530;52.832;10.680;2023-10-31T02:27:16;4.30;;;3.97;;
6979;SDS011;3530;52.832;10.680;2023-10-31T02:30:01;4.43;;;3.78;;
6979;SDS011;3530;52.832;10.680;2023-10-31T02:32:47;4.40;;;3.65;;
6979;SDS011;3530;52.832;10.680;2023-10-31T02:35:33;3.47;;;3.28;;
6979;SDS011;3530;52.832;10.680;2023-10-31T02:38:18;4.35;;;3.42;;
6979;SDS011;3530;52.832;10.680;2023-10-31T02:41:04;3.63;;;3.30;;
6979;SDS011;3530;52.832;10.680;2023-10-31T02:43:50;4.95;;;3.55;;
6979;SDS011;3530;52.832;10.680;2023-10-31T02:46:38;3.33;;;3.03;;
6979;SDS011;3530;52.832;10.680;2023-10-31T02:49:24;3.35;;;3.08;;
6979;SDS011;3530;52.832;10.680;2023-10-31T02:52:10;3.13;;;2.92;;
6979;SDS011;3530;52.832;10.680;2023-10-31T02:54:55;3.85;;;3.55;;
6979;SDS011;3530;52.832;10.680;2023-10-31T02:57:41;3.20;;;2.90;;
6979;SDS011;3530;52.832;10.680;2023-10-31T03:00:27;3.58;;;2.88;;
6979;SDS011;3530;52.832;10.680;2023-10-31T03:03:12;4.28;;;3.20;;
6979;SDS011;3530;52.832;10.680;2023-10-31T03:05:59;3.63;;;3.33;;
6979;SDS011;3530;52.832;10.680;2023-10-31T03:08:45;2.92;;;2.70;;
6979;SDS011;3530;52.832;10.680;2023-10-31T03:11:30;3.30;;;3.00;;
6979;SDS011;3530;52.832;10.680;2023-10-31T03:14:17;3.70;;;2.97;;
6979;SDS011;3530;52.832;10.680;2023-10-31T03:17:03;3.90;;;2.63;;
6979;SDS011;3530;52.832;10.680;2023-10-31T03:19:49;3.10;;;2.80;;
6979;SDS011;3530;52.832;10.680;2023-10-31T03:22:34;4.78;;;3.17;;
6979;SDS011;3530;52.832;10.680;2023-10-31T03:25:20;3.58;;;3.25;;
6979;SDS011;3530;52.832;10.680;2023-10-31T03:28:09;3.80;;;2.60;;
6979;SDS011;3530;52.832;10.680;2023-10-31T03:31:03;3.15;;;2.85;;
6979;SDS011;3530;52.832;10.680;2023-10-31T03:33:49;2.38;;;2.28;;
6979;SDS011;3530;52.832;10.680;2023-10-31T03:36:35;4.45;;;2.72;;
6979;SDS011;3530;52.832;10.680;2023-10-31T03:39:20;4.20;;;2.83;;
6979;SDS011;3530;52.832;10.680;2023-10-31T03:42:06;4.30;;;3.10;;
6979;SDS011;3530;52.832;10.680;2023-10-31T03:44:52;3.38;;;3.08;;
6979;SDS011;3530;52.832;10.680;2023-10-31T03:47:37;2.80;;;2.60;;
6979;SDS011;3530;52.832;10.680;2023-10-31T03:50:23;3.65;;;2.70;;
6979;SDS011;3530;52.832;10.680;2023-10-31T03:53:09;3.67;;;3.40;;
6979;SDS011;3530;52.832;10.680;2023-10-31T03:55:54;6.25;;;3.97;;
6979;SDS011;3530;52.832;10.680;2023-10-31T03:58:42;6.13;;;3.50;;
6979;SDS011;3530;52.832;10.680;2023-10-31T04:01:28;7.03;;;3.47;;
6979;SDS011;3530;52.832;10.680;2023-10-31T04:04:13;5.00;;;3.20;;
6979;SDS011;3530;52.832;10.680;2023-10-31T04:06:59;3.45;;;3.17;;
6979;SDS011;3530;52.832;10.680;2023-10-31T04:09:45;4.15;;;3.83;;
6979;SDS011;3530;52.832;10.680;2023-10-31T04:12:31;4.80;;;2.72;;
6979;SDS011;3530;52.832;10.680;2023-10-31T04:15:17;3.28;;;2.97;;
6979;SDS011;3530;52.832;10.680;2023-10-31T04:18:02;2.70;;;2.55;;
6979;SDS011;3530;52.832;10.680;2023-10-31T04:20:49;3.17;;;2.95;;
6979;SDS011;3530;52.832;10.680;2023-10-31T04:23:34;4.07;;;3.70;;
6979;SDS011;3530;52.832;10.680;2023-10-31T04:26:20;5.53;;;3.45;;
6979;SDS011;3530;52.832;10.680;2023-10-31T04:29:06;4.03;;;3.63;;
6979;SDS011;3530;52.832;10.680;2023-10-31T04:31:51;4.50;;;3.97;;
6979;SDS011;3530;52.832;10.680;2023-10-31T04:34:37;3.85;;;3.33;;
6979;SDS011;3530;52.832;10.680;2023-10-31T04:37:23;3.20;;;2.90;;
6979;SDS011;3530;52.832;10.680;2023-10-31T04:40:08;3.88;;;3.50;;
6979;SDS011;3530;52.832;10.680;2023-10-31T04:42:55;5.55;;;3.70;;
6979;SDS011;3530;52.832;10.680;2023-10-31T04:45:41;6.72;;;3.60;;
6979;SDS011;3530;52.832;10.680;2023-10-31T04:48:27;3.97;;;3.65;;
6979;SDS011;3530;52.832;10.680;2023-10-31T04:51:13;4.03;;;3.15;;
6979;SDS011;3530;52.832;10.680;2023-10-31T04:53:58;5.72;;;3.90;;
6979;SDS011;3530;52.832;10.680;2023-10-31T04:56:44;5.53;;;3.90;;
6979;SDS011;3530;52.832;10.680;2023-10-31T04:59:30;3.70;;;3.40;;
6979;SDS011;3530;52.832;10.680;2023-10-31T05:02:15;3.83;;;3.53;;
6979;SDS011;3530;52.832;10.680;2023-10-31T05:05:01;3.92;;;3.63;;
6979;SDS011;3530;52.832;10.680;2023-10-31T05:07:47;3.60;;;3.30;;
6979;SDS011;3530;52.832;10.680;2023-10-31T05:10:33;4.30;;;3.40;;
6979;SDS011;3530;52.832;10.680;2023-10-31T05:13:18;5.38;;;3.33;;
6979;SDS011;3530;52.832;10.680;2023-10-31T05:16:04;3.03;;;2.70;;
6979;SDS011;3530;52.832;10.680;2023-10-31T05:18:50;3.85;;;3.50;;
6979;SDS011;3530;52.832;10.680;2023-10-31T05:21:36;3.35;;;3.05;;
6979;SDS011;3530;52.832;10.680;2023-10-31T05:24:21;7.03;;;3.92;;
6979;SDS011;3530;52.832;10.680;2023-10-31T05:27:07;3.60;;;3.30;;
6979;SDS011;3530;52.832;10.680;2023-10-31T05:29:53;2.65;;;2.33;;
6979;SDS011;3530;52.832;10.680;2023-10-31T05:32:39;3.10;;;2.78;;
6979;SDS011;3530;52.832;10.680;2023-10-31T05:35:24;3.15;;;1.85;;
6979;SDS011;3530;52.832;10.680;2023-10-31T05:38:10;2.35;;;2.25;;
6979;SDS011;3530;52.832;10.680;2023-10-31T05:40:56;3.70;;;2.53;;
6979;SDS011;3530;52.832;10.680;2023-10-31T05:43:42;2.03;;;1.95;;
6979;SDS011;3530;52.832;10.680;2023-10-31T05:46:27;2.67;;;2.58;;
6979;SDS011;3530;52.832;10.680;2023-10-31T05:49:13;3.60;;;3.25;;
6979;SDS011;3530;52.832;10.680;2023-10-31T05:51:59;3.20;;;2.92;;
6979;SDS011;3530;52.832;10.680;2023-10-31T05:54:44;2.95;;;2.65;;
6979;SDS011;3530;52.832;10.680;2023-10-31T05:57:30;3.00;;;2.80;;
6979;SDS011;3530;52.832;10.680;2023-10-31T06:00:16;2.65;;;2.55;;
6979;SDS011;3530;52.832;10.680;2023-10-31T06:03:02;2.40;;;2.30;;
6979;SDS011;3530;52.832;10.680;2023-10-31T06:05:47;2.75;;;2.65;;
6979;SDS011;3530;52.832;10.680;2023-10-31T06:08:33;2.13;;;2.03;;
6979;SDS011;3530;52.832;10.680;2023-10-31T06:11:20;1.73;;;1.67;;
6979;SDS011;3530;52.832;10.680;2023-10-31T06:14:05;1.50;;;1.50;;
6979;SDS011;3530;52.832;10.680;2023-10-31T06:16:51;1.40;;;1.40;;
6979;SDS011;3530;52.832;10.680;2023-10-31T06:19:37;1.30;;;1.30;;
6979;SDS011;3530;52.832;10.680;2023-10-31T06:22:22;1.33;;;1.27;;
6979;SDS011;3530;52.832;10.680;2023-10-31T06:25:08;1.10;;;1.10;;
6979;SDS011;3530;52.832;10.680;2023-10-31T06:27:54;1.20;;;1.13;;
6979;SDS011;3530;52.832;10.680;2023-10-31T06:30:39;1.10;;;1.10;;
6979;SDS011;3530;52.832;10.680;2023-10-31T06:33:25;1.15;;;1.15;;
6979;SDS011;3530;52.832;10.680;2023-10-31T06:36:11;1.02;;;1.02;;
6979;SDS011;3530;52.832;10.680;2023-10-31T06:38:56;1.10;;;1.10;;
6979;SDS011;3530;52.832;10.680;2023-10-31T06:41:42;4.15;;;1.08;;
6979;SDS011;3530;52.832;10.680;2023-10-31T06:44:28;1.10;;;1.10;;
6979;SDS011;3530;52.832;10.680;2023-10-31T06:47:13;0.90;;;0.90;;
6979;SDS011;3530;52.832;10.680;2023-10-31T06:49:59;1.02;;;1.02;;
6979;SDS011;3530;52.832;10.680;2023-10-31T06:52:45;0.98;;;0.98;;
6979;SDS011;3530;52.832;10.680;2023-10-31T06:55:31;0.93;;;0.93;;
6979;SDS011;3530;52.832;10.680;2023-10-31T06:58:16;0.80;;;0.80;;
6979;SDS011;3530;52.832;10.680;2023-10-31T07:01:02;0.90;;;0.90;;
6979;SDS011;3530;52.832;10.680;2023-10-31T07:03:48;5.38;;;4.97;;
6979;SDS011;3530;52.832;10.680;2023-10-31T07:06:34;1.38;;;1.27;;
6979;SDS011;3530;52.832;10.680;2023-10-31T07:09:20;1.20;;;1.20;;
6979;SDS011;3530;52.832;10.680;2023-10-31T07:12:05;1.08;;;1.08;;
6979;SDS011;3530;52.832;10.680;2023-10-31T07:14:51;1.15;;;1.15;;
6979;SDS011;3530;52.832;10.680;2023-10-31T07:17:38;1.00;;;1.00;;
6979;SDS011;3530;52.832;10.680;2023-10-31T07:20:23;0.90;;;0.90;;
6979;SDS011;3530;52.832;10.680;2023-10-31T07:23:09;1.05;;;1.00;;
6979;SDS011;3530;52.832;10.680;2023-10-31T07:25:55;0.90;;;0.90;;
6979;SDS011;3530;52.832;10.680;2023-10-31T07:28:40;0.90;;;0.90;;
6979;SDS011;3530;52.832;10.680;2023-10-31T07:31:26;0.90;;;0.90;;
6979;SDS011;3530;52.832;10.680;2023-10-31T07:34:12;0.93;;;0.93;;
6979;SDS011;3530;52.832;10.680;2023-10-31T07:36:57;1.42;;;1.00;;
6979;SDS011;3530;52.832;10.680;2023-10-31T07:39:43;1.00;;;1.00;;
6979;SDS011;3530;52.832;10.680;2023-10-31T07:42:29;0.90;;;0.90;;
6979;SDS011;3530;52.832;10.680;2023-10-31T07:45:15;0.90;;;0.90;;
6979;SDS011;3530;52.832;10.680;2023-10-31T07:48:01;1.10;;;1.10;;
6979;SDS011;3530;52.832;10.680;2023-10-31T07:50:47;1.10;;;1.10;;
6979;SDS011;3530;52.832;10.680;2023-10-31T07:53:32;1.00;;;1.00;;
6979;SDS011;3530;52.832;10.680;2023-10-31T07:56:18;1.00;;;1.00;;
6979;SDS011;3530;52.832;10.680;2023-10-31T07:59:08;1.02;;;1.02;;
6979;SDS011;3530;52.832;10.680;2023-10-31T08:01:54;0.93;;;0.93;;
6979;SDS011;3530;52.832;10.680;2023-10-31T08:04:39;1.00;;;1.00;;
6979;SDS011;3530;52.832;10.680;2023-10-31T08:07:25;0.90;;;0.90;;
6979;SDS011;3530;52.832;10.680;2023-10-31T08:10:15;0.98;;;0.98;;
6979;SDS011;3530;52.832;10.680;2023-10-31T08:13:00;1.10;;;1.10;;
6979;SDS011;3530;52.832;10.680;2023-10-31T08:15:46;1.40;;;1.25;;
6979;SDS011;3530;52.832;10.680;2023-10-31T08:18:32;4.68;;;1.55;;
6979;SDS011;3530;52.832;10.680;2023-10-31T08:21:18;1.00;;;1.00;;
6979;SDS011;3530;52.832;10.680;2023-10-31T08:24:04;1.10;;;1.10;;
6979;SDS011;3530;52.832;10.680;2023-10-31T08:26:50;1.10;;;1.10;;
6979;SDS011;3530;52.832;10.680;2023-10-31T08:29:36;1.00;;;1.00;;
6979;SDS011;3530;52.832;10.680;2023-10-31T08:32:21;1.10;;;1.10;;
6979;SDS011;3530;52.832;10.680;2023-10-31T08:35:09;1.48;;;1.10;;
6979;SDS011;3530;52.832;10.680;2023-10-31T08:37:55;1.08;;;1.08;;
6979;SDS011;3530;52.832;10.680;2023-10-31T08:40:41;1.10;;;1.10;;
6979;SDS011;3530;52.832;10.680;2023-10-31T08:43:27;1.30;;;1.30;;
6979;SDS011;3530;52.832;10.680;2023-10-31T08:46:12;1.30;;;1.30;;
6979;SDS011;3530;52.832;10.680;2023-10-31T08:48:58;7.05;;;3.20;;
6979;SDS011;3530;52.832;10.680;2023-10-31T08:51:44;4.50;;;3.42;;
6979;SDS011;3530;52.832;10.680;2023-10-31T08:54:30;1.35;;;1.35;;
6979;SDS011;3530;52.832;10.680;2023-10-31T08:57:16;1.00;;;1.00;;
6979;SDS011;3530;52.832;10.680;2023-10-31T09:00:01;1.02;;;1.02;;
6979;SDS011;3530;52.832;10.680;2023-10-31T09:02:50;0.90;;;0.90;;
6979;SDS011;3530;52.832;10.680;2023-10-31T09:05:36;1.15;;;1.15;;
6979;SDS011;3530;52.832;10.680;2023-10-31T09:08:21;1.25;;;1.25;;
6979;SDS011;3530;52.832;10.680;2023-10-31T09:11:07;1.33;;;1.33;;
6979;SDS011;3530;52.832;10.680;2023-10-31T09:13:52;1.30;;;1.30;;
6979;SDS011;3530;52.832;10.680;2023-10-31T09:16:38;2.08;;;1.38;;
6979;SDS011;3530;52.832;10.680;2023-10-31T09:19:24;1.13;;;1.13;;
6979;SDS011;3530;52.832;10.680;2023-10-31T09:22:09;2.40;;;1.40;;
6979;SDS011;3530;52.832;10.680;2023-10-31T09:24:55;1.83;;;1.30;;
6979;SDS011;3530;52.832;10.680;2023-10-31T09:27:41;0.98;;;0.98;;
6979;SDS011;3530;52.832;10.680;2023-10-31T09:30:27;1.00;;;1.00;;
6979;SDS011;3530;52.832;10.680;2023-10-31T09:33:12;1.27;;;1.25;;
6979;SDS011;3530;52.832;10.680;2023-10-31T09:35:59;1.30;;;1.30;;
6979;SDS011;3530;52.832;10.680;2023-10-31T09:38:44;1.10;;;1.10;;
6979;SDS011;3530;52.832;10.680;2023-10-31T09:41:30;1.73;;;1.63;;
6979;SDS011;3530;52.832;10.680;2023-10-31T09:44:17;1.50;;;1.50;;
6979;SDS011;3530;52.832;10.680;2023-10-31T09:47:03;1.80;;;1.70;;
6979;SDS011;3530;52.832;10.680;2023-10-31T09:49:51;1.40;;;1.40;;
6979;SDS011;3530;52.832;10.680;2023-10-31T09:52:37;2.70;;;2.60;;
6979;SDS011;3530;52.832;10.680;2023-10-31T09:55:23;4.65;;;3.47;;
6979;SDS011;3530;52.832;10.680;2023-10-31T09:58:09;2.47;;;2.30;;
6979;SDS011;3530;52.832;10.680;2023-10-31T10:00:55;7.00;;;4.53;;
6979;SDS011;3530;52.832;10.680;2023-10-31T10:03:42;3.50;;;3.05;;
6979;SDS011;3530;52.832;10.680;2023-10-31T10:06:28;5.25;;;4.53;;
6979;SDS011;3530;52.832;10.680;2023-10-31T10:09:14;6.95;;;5.07;;
6979;SDS011;3530;52.832;10.680;2023-10-31T10:12:00;4.13;;;2.78;;
6979;SDS011;3530;52.832;10.680;2023-10-31T10:14:46;7.90;;;3.47;;
6979;SDS011;3530;52.832;10.680;2023-10-31T10:17:32;2.03;;;1.92;;
6979;SDS011;3530;52.832;10.680;2023-10-31T10:20:18;3.08;;;2.83;;
6979;SDS011;3530;52.832;10.680;2023-10-31T10:23:04;2.53;;;2.33;;
6979;SDS011;3530;52.832;10.680;2023-10-31T10:25:50;2.88;;;2.60;;
6979;SDS011;3530;52.832;10.680;2023-10-31T10:28:35;2.38;;;2.25;;
6979;SDS011;3530;52.832;10.680;2023-10-31T10:31:23;6.43;;;4.95;;
6979;SDS011;3530;52.832;10.680;2023-10-31T10:34:09;1.73;;;1.63;;
6979;SDS011;3530;52.832;10.680;2023-10-31T10:36:55;4.53;;;2.50;;
6979;SDS011;3530;52.832;10.680;2023-10-31T10:39:42;2.92;;;2.78;;
6979;SDS011;3530;52.832;10.680;2023-10-31T10:42:32;3.90;;;3.60;;
6979;SDS011;3530;52.832;10.680;2023-10-31T10:45:19;6.10;;;5.22;;
6979;SDS011;3530;52.832;10.680;2023-10-31T10:48:06;5.43;;;3.60;;
6979;SDS011;3530;52.832;10.680;2023-10-31T10:51:20;4.68;;;3.95;;
6979;SDS011;3530;52.832;10.680;2023-10-31T10:54:31;4.85;;;3.90;;
6979;SDS011;3530;52.832;10.680;2023-10-31T10:57:24;2.33;;;2.20;;
6979;SDS011;3530;52.832;10.680;2023-10-31T11:00:22;6.32;;;3.70;;
6979;SDS011;3530;52.832;10.680;2023-10-31T11:03:10;3.67;;;3.38;;
6979;SDS011;3530;52.832;10.680;2023-10-31T11:05:56;6.20;;;3.92;;
6979;SDS011;3530;52.832;10.680;2023-10-31T11:08:42;4.28;;;3.22;;
6979;SDS011;3530;52.832;10.680;2023-10-31T11:11:28;4.43;;;3.10;;
6979;SDS011;3530;52.832;10.680;2023-10-31T11:14:15;4.10;;;3.20;;
6979;SDS011;3530;52.832;10.680;2023-10-31T11:17:02;3.15;;;2.85;;
6979;SDS011;3530;52.832;10.680;2023-10-31T11:19:52;3.67;;;3.28;;
6979;SDS011;3530;52.832;10.680;2023-10-31T11:22:38;2.28;;;2.17;;
6979;SDS011;3530;52.832;10.680;2023-10-31T11:25:25;2.15;;;2.05;;
6979;SDS011;3530;52.832;10.680;2023-10-31T11:28:12;2.30;;;2.10;;
6979;SDS011;3530;52.832;10.680;2023-10-31T11:31:01;1.30;;;1.30;;
6979;SDS011;3530;52.832;10.680;2023-10-31T11:33:48;1.42;;;1.40;;
6979;SDS011;3530;52.832;10.680;2023-10-31T11:36:35;1.20;;;1.20;;
6979;SDS011;3530;52.832;10.680;2023-10-31T11:39:21;1.02;;;1.02;;
6979;SDS011;3530;52.832;10.680;2023-10-31T11:42:17;1.02;;;1.02;;
6979;SDS011;3530;52.832;10.680;2023-10-31T11:45:03;1.10;;;1.10;;
6979;SDS011;3530;52.832;10.680;2023-10-31T11:47:50;1.00;;;1.00;;
6979;SDS011;3530;52.832;10.680;2023-10-31T11:50:36;1.00;;;1.00;;
6979;SDS011;3530;52.832;10.680;2023-10-31T11:53:22;1.17;;;1.17;;
6979;SDS011;3530;52.832;10.680;2023-10-31T11:56:09;1.05;;;1.05;;
6979;SDS011;3530;52.832;10.680;2023-10-31T11:58:55;1.00;;;1.00;;
6979;SDS011;3530;52.832;10.680;2023-10-31T12:01:46;1.10;;;1.10;;
6979;SDS011;3530;52.832;10.680;2023-10-31T12:04:32;1.20;;;1.20;;
6979;SDS011;3530;52.832;10.680;2023-10-31T12:07:18;1.00;;;1.00;;
6979;SDS011;3530;52.832;10.680;2023-10-31T12:10:04;1.10;;;1.10;;
6979;SDS011;3530;52.832;10.680;2023-10-31T12:12:51;1.10;;;1.10;;
6979;SDS011;3530;52.832;10.680;2023-10-31T12:15:36;1.00;;;1.00;;
6979;SDS011;3530;52.832;10.680;2023-10-31T12:18:22;1.00;;;1.00;;
6979;SDS011;3530;52.832;10.680;2023-10-31T12:21:08;1.42;;;1.38;;
6979;SDS011;3530;52.832;10.680;2023-10-31T12:24:01;2.15;;;1.90;;
6979;SDS011;3530;52.832;10.680;2023-10-31T12:26:54;2.78;;;2.58;;
6979;SDS011;3530;52.832;10.680;2023-10-31T12:29:40;2.30;;;2.03;;
6979;SDS011;3530;52.832;10.680;2023-10-31T12:32:25;1.88;;;1.77;;
6979;SDS011;3530;52.832;10.680;2023-10-31T12:35:12;2.60;;;2.20;;
6979;SDS011;3530;52.832;10.680;2023-10-31T12:38:02;4.07;;;3.58;;
6979;SDS011;3530;52.832;10.680;2023-10-31T12:40:47;3.30;;;2.13;;
6979;SDS011;3530;52.832;10.680;2023-10-31T12:43:34;3.80;;;3.00;;
6979;SDS011;3530;52.832;10.680;2023-10-31T12:46:29;2.63;;;2.53;;
6979;SDS011;3530;52.832;10.680;2023-10-31T12:49:18;7.90;;;5.25;;
6979;SDS011;3530;52.832;10.680;2023-10-31T12:52:05;4.90;;;4.10;;
6979;SDS011;3530;52.832;10.680;2023-10-31T12:54:50;3.70;;;2.38;;
6979;SDS011;3530;52.832;10.680;2023-10-31T12:57:36;2.80;;;2.60;;
6979;SDS011;3530;52.832;10.680;2023-10-31T13:00:22;4.32;;;3.03;;
6979;SDS011;3530;52.832;10.680;2023-10-31T13:03:11;5.05;;;3.83;;
6979;SDS011;3530;52.832;10.680;2023-10-31T13:05:57;3.00;;;2.80;;
6979;SDS011;3530;52.832;10.680;2023-10-31T13:08:45;2.60;;;2.50;;
6979;SDS011;3530;52.832;10.680;2023-10-31T13:11:31;3.40;;;3.10;;
6979;SDS011;3530;52.832;10.680;2023-10-31T13:14:17;4.32;;;3.90;;
6979;SDS011;3530;52.832;10.680;2023-10-31T13:17:03;4.18;;;3.80;;
6979;SDS011;3530;52.832;10.680;2023-10-31T13:19:49;9.70;;;6.57;;
6979;SDS011;3530;52.832;10.680;2023-10-31T13:22:35;5.93;;;4.75;;
6979;SDS011;3530;52.832;10.680;2023-10-31T13:25:22;5.78;;;5.28;;
6979;SDS011;3530;52.832;10.680;2023-10-31T13:28:07;5.25;;;4.22;;
6979;SDS011;3530;52.832;10.680;2023-10-31T13:30:57;5.38;;;3.65;;
6979;SDS011;3530;52.832;10.680;2023-10-31T13:33:43;6.63;;;3.85;;
6979;SDS011;3530;52.832;10.680;2023-10-31T13:36:28;3.42;;;3.15;;
6979;SDS011;3530;52.832;10.680;2023-10-31T13:39:14;3.95;;;2.38;;
6979;SDS011;3530;52.832;10.680;2023-10-31T13:42:00;2.13;;;2.03;;
6979;SDS011;3530;52.832;10.680;2023-10-31T13:44:46;2.30;;;2.10;;
6979;SDS011;3530;52.832;10.680;2023-10-31T13:47:32;2.95;;;2.17;;
6979;SDS011;3530;52.832;10.680;2023-10-31T13:50:18;1.85;;;1.75;;
6979;SDS011;3530;52.832;10.680;2023-10-31T13:53:04;1.70;;;1.70;;
6979;SDS011;3530;52.832;10.680;2023-10-31T13:55:52;1.63;;;1.27;;
6979;SDS011;3530;52.832;10.680;2023-10-31T13:58:38;3.40;;;2.40;;
6979;SDS011;3530;52.832;10.680;2023-10-31T14:01:24;1.58;;;1.58;;
6979;SDS011;3530;52.832;10.680;2023-10-31T14:04:11;1.90;;;1.80;;
6979;SDS011;3530;52.832;10.680;2023-10-31T14:06:58;2.08;;;1.50;;
6979;SDS011;3530;52.832;10.680;2023-10-31T14:09:44;1.48;;;1.48;;
6979;SDS011;3530;52.832;10.680;2023-10-31T14:12:30;1.30;;;1.30;;
6979;SDS011;3530;52.832;10.680;2023-10-31T14:15:16;1.10;;;1.10;;
6979;SDS011;3530;52.832;10.680;2023-10-31T14:18:02;1.42;;;1.38;;
6979;SDS011;3530;52.832;10.680;2023-10-31T14:20:48;1.38;;;1.38;;
6979;SDS011;3530;52.832;10.680;2023-10-31T14:23:34;1.77;;;1.10;;
6979;SDS011;3530;52.832;10.680;2023-10-31T14:26:20;1.38;;;1.27;;
6979;SDS011;3530;52.832;10.680;2023-10-31T14:29:06;1.20;;;1.20;;
6979;SDS011;3530;52.832;10.680;2023-10-31T14:31:52;1.23;;;1.23;;
6979;SDS011;3530;52.832;10.680;2023-10-31T14:34:39;1.45;;;1.38;;
6979;SDS011;3530;52.832;10.680;2023-10-31T14:37:25;1.25;;;1.25;;
6979;SDS011;3530;52.832;10.680;2023-10-31T14:40:11;1.45;;;1.40;;
6979;SDS011;3530;52.832;10.680;2023-10-31T14:42:57;3.42;;;1.60;;
6979;SDS011;3530;52.832;10.680;2023-10-31T14:45:43;1.33;;;1.33;;
6979;SDS011;3530;52.832;10.680;2023-10-31T14:48:29;1.33;;;1.33;;
6979;SDS011;3530;52.832;10.680;2023-10-31T14:51:15;1.30;;;1.30;;
6979;SDS011;3530;52.832;10.680;2023-10-31T14:54:01;1.35;;;1.35;;
6979;SDS011;3530;52.832;10.680;2023-10-31T14:56:47;1.30;;;1.30;;
6979;SDS011;3530;52.832;10.680;2023-10-31T14:59:32;1.40;;;1.40;;
6979;SDS011;3530;52.832;10.680;2023-10-31T15:02:18;1.63;;;1.55;;
6979;SDS011;3530;52.832;10.680;2023-10-31T15:05:04;1.42;;;1.25;;
6979;SDS011;3530;52.832;10.680;2023-10-31T15:07:49;1.42;;;1.35;;
6979;SDS011;3530;52.832;10.680;2023-10-31T15:10:35;1.42;;;1.40;;
6979;SDS011;3530;52.832;10.680;2023-10-31T15:13:21;1.15;;;1.15;;
6979;SDS011;3530;52.832;10.680;2023-10-31T15:16:07;1.88;;;1.30;;
6979;SDS011;3530;52.832;10.680;2023-10-31T15:18:53;1.80;;;1.70;;
6979;SDS011;3530;52.832;10.680;2023-10-31T15:21:39;1.17;;;1.17;;
6979;SDS011;3530;52.832;10.680;2023-10-31T15:24:24;1.55;;;1.55;;
6979;SDS011;3530;52.832;10.680;2023-10-31T15:27:10;2.00;;;1.90;;
6979;SDS011;3530;52.832;10.680;2023-10-31T15:29:59;3.92;;;3.58;;
6979;SDS011;3530;52.832;10.680;2023-10-31T15:32:44;1.98;;;1.88;;
6979;SDS011;3530;52.832;10.680;2023-10-31T15:35:30;2.25;;;1.90;;
6979;SDS011;3530;52.832;10.680;2023-10-31T15:38:16;1.52;;;1.40;;
6979;SDS011;3530;52.832;10.680;2023-10-31T15:41:03;1.40;;;1.40;;
6979;SDS011;3530;52.832;10.680;2023-10-31T15:43:49;1.90;;;1.80;;
6979;SDS011;3530;52.832;10.680;2023-10-31T15:46:35;1.50;;;1.50;;
6979;SDS011;3530;52.832;10.680;2023-10-31T15:49:22;1.38;;;1.38;;
6979;SDS011;3530;52.832;10.680;2023-10-31T15:52:07;1.80;;;1.67;;
6979;SDS011;3530;52.832;10.680;2023-10-31T15:54:53;1.67;;;1.48;;
6979;SDS011;3530;52.832;10.680;2023-10-31T15:57:39;1.45;;;1.45;;
6979;SDS011;3530;52.832;10.680;2023-10-31T16:00:25;1.38;;;1.38;;
6979;SDS011;3530;52.832;10.680;2023-10-31T16:03:12;1.55;;;1.55;;
6979;SDS011;3530;52.832;10.680;2023-10-31T16:05:58;1.10;;;1.10;;
6979;SDS011;3530;52.832;10.680;2023-10-31T16:08:43;1.60;;;1.50;;
6979;SDS011;3530;52.832;10.680;2023-10-31T16:11:29;2.42;;;1.80;;
6979;SDS011;3530;52.832;10.680;2023-10-31T16:14:15;1.20;;;1.20;;
6979;SDS011;3530;52.832;10.680;2023-10-31T16:17:07;2.22;;;2.13;;
6979;SDS011;3530;52.832;10.680;2023-10-31T16:19:52;2.22;;;2.13;;
6979;SDS011;3530;52.832;10.680;2023-10-31T16:22:38;1.60;;;1.50;;
6979;SDS011;3530;52.832;10.680;2023-10-31T16:25:24;1.52;;;1.52;;
6979;SDS011;3530;52.832;10.680;2023-10-31T16:28:10;1.48;;;1.48;;
6979;SDS011;3530;52.832;10.680;2023-10-31T16:30:57;1.70;;;1.60;;
6979;SDS011;3530;52.832;10.680;2023-10-31T16:33:42;2.03;;;1.90;;
6979;SDS011;3530;52.832;10.680;2023-10-31T16:36:28;2.10;;;2.00;;
6979;SDS011;3530;52.832;10.680;2023-10-31T16:39:14;2.00;;;1.90;;
6979;SDS011;3530;52.832;10.680;2023-10-31T16:41:59;1.75;;;1.67;;
6979;SDS011;3530;52.832;10.680;2023-10-31T16:44:45;1.50;;;1.50;;
6979;SDS011;3530;52.832;10.680;2023-10-31T16:47:31;1.40;;;1.40;;
6979;SDS011;3530;52.832;10.680;2023-10-31T16:50:16;1.70;;;1.60;;
6979;SDS011;3530;52.832;10.680;2023-10-31T16:53:02;2.25;;;2.00;;
6979;SDS011;3530;52.832;10.680;2023-10-31T16:55:50;1.80;;;1.70;;